Time;durP1;ratioP1;P1;durP2;ratioP2;P2;SDS_P1;SDS_P2;PMS_P1;PMS_P2;Temp;Humidity;BMP_temperature;BMP_pressure;BME280_temperature;BME280_humidity;BME280_pressure;Samples;Min_cycle;Max_cycle;Signal;HPM_P1;HPM_P2
2022/07/18 00:02:03;;;;;;;4.07;2.55;;;;;;;21.97;42.37;102293.38;5053882;28;20037;-68
2022/07/18 00:04:30;;;;;;;4.45;2.80;;;;;;;21.93;42.55;102291.94;5052934;28;20045;-68
2022/07/18 00:06:57;;;;;;;9.48;2.92;;;;;;;21.89;42.81;102288.66;5053680;28;20094;-68
2022/07/18 00:09:24;;;;;;;8.05;2.83;;;;;;;21.84;42.75;102293.69;5052516;28;20033;-68
2022/07/18 00:11:51;;;;;;;5.15;3.20;;;;;;;21.78;42.37;102290.69;5053015;28;20045;-69
2022/07/18 00:14:20;;;;;;;9.98;4.15;;;;;;;21.70;42.62;102293.28;5050714;28;20052;-68
2022/07/18 00:16:48;;;;;;;8.48;3.88;;;;;;;21.65;42.94;102284.66;5052999;28;20037;-68
2022/07/18 00:19:15;;;;;;;7.25;4.28;;;;;;;21.61;42.59;102285.97;5052475;28;20041;-68
2022/07/18 00:21:42;;;;;;;6.97;3.90;;;;;;;21.54;42.65;102285.66;5052318;28;20525;-68
2022/07/18 00:24:09;;;;;;;7.75;3.53;;;;;;;21.47;43.05;102288.09;5052659;28;20041;-69
2022/07/18 00:26:35;;;;;;;5.13;3.38;;;;;;;21.41;43.36;102283.22;5052754;28;20040;-68
2022/07/18 00:29:02;;;;;;;6.53;3.35;;;;;;;21.38;43.15;102282.66;5052449;28;20037;-68
2022/07/18 00:31:31;;;;;;;5.75;3.42;;;;;;;21.37;43.26;102272.72;5052511;28;20098;-68
2022/07/18 00:34:00;;;;;;;7.55;3.33;;;;;;;21.34;43.39;102271.16;5052353;28;20044;-68
2022/07/18 00:36:28;;;;;;;5.20;3.47;;;;;;;21.28;43.78;102268.13;5052309;28;20053;-68
2022/07/18 00:38:56;;;;;;;6.63;3.38;;;;;;;21.24;43.49;102267.56;5052130;28;20045;-68
2022/07/18 00:41:23;;;;;;;7.25;3.58;;;;;;;21.21;43.89;102267.81;5052558;28;20056;-68
2022/07/18 00:43:53;;;;;;;8.75;3.90;;;;;;;21.17;43.75;102263.63;5052439;28;20051;-68
2022/07/18 00:46:27;;;;;;;5.55;3.35;;;;;;;21.16;44.02;102262.78;5052425;28;20451;-68
2022/07/18 00:48:55;;;;;;;6.50;3.75;;;;;;;21.13;43.76;102263.06;5052044;28;20041;-68
2022/07/18 00:51:22;;;;;;;4.88;3.33;;;;;;;21.11;44.04;102264.22;5052333;28;20048;-68
2022/07/18 00:53:49;;;;;;;6.68;3.40;;;;;;;21.10;43.85;102262.50;5051995;28;20071;-69
2022/07/18 00:56:18;;;;;;;7.68;4.15;;;;;;;21.08;44.16;102261.78;5052414;28;20073;-68
2022/07/18 00:58:45;;;;;;;8.45;3.63;;;;;;;21.07;44.32;102263.63;5051987;28;20418;-68
2022/07/18 01:03:57;;;;;;;5.63;3.85;;;;;;;21.03;44.00;102259.47;5052271;28;20071;-68
2022/07/18 01:06:24;;;;;;;6.30;3.63;;;;;;;21.02;43.99;102256.88;5051866;28;20406;-68
2022/07/18 01:08:50;;;;;;;8.30;3.38;;;;;;;21.00;44.33;102250.69;5052027;28;20511;-68
2022/07/18 01:11:17;;;;;;;6.80;3.88;;;;;;;20.98;44.10;102258.16;5051960;28;20048;-68
2022/07/18 01:13:45;;;;;;;8.65;3.45;;;;;;;20.94;44.26;102253.00;5051728;28;20041;-68
2022/07/18 01:16:15;;;;;;;8.15;3.35;;;;;;;20.91;44.56;102253.28;5052283;28;20084;-68
2022/07/18 01:18:49;;;;;;;6.57;3.30;;;;;;;20.88;44.36;102250.84;5052039;28;20041;-68
2022/07/18 01:21:17;;;;;;;7.97;3.80;;;;;;;20.86;44.19;102251.97;5051965;28;20045;-68
2022/07/18 01:23:46;;;;;;;8.13;3.53;;;;;;;20.84;44.56;102243.94;5051733;28;20494;-68
2022/07/18 01:26:15;;;;;;;5.10;3.72;;;;;;;20.81;44.68;102246.94;5050805;28;20306;-68
2022/07/18 01:28:42;;;;;;;4.32;3.20;;;;;;;20.80;44.40;102250.66;5051586;28;20041;-69
2022/07/18 01:31:09;;;;;;;7.25;3.22;;;;;;;20.78;44.51;102247.19;5051689;28;20049;-69
2022/07/18 01:33:39;;;;;;;4.80;3.33;;;;;;;20.74;44.36;102250.34;5051567;28;20044;-69
2022/07/18 01:36:06;;;;;;;4.55;3.60;;;;;;;20.69;44.46;102252.63;5051285;28;20040;-69
2022/07/18 01:38:34;;;;;;;11.32;3.83;;;;;;;20.66;44.29;102252.91;5051471;28;20048;-68
2022/07/18 01:41:01;;;;;;;5.85;3.17;;;;;;;20.61;44.74;102246.00;5051598;28;20546;-69
2022/07/18 01:43:27;;;;;;;7.32;3.88;;;;;;;20.57;44.28;102240.97;5051087;28;20065;-69
2022/07/18 01:45:55;;;;;;;7.13;4.30;;;;;;;20.55;44.65;102237.53;5031592;28;20521;-68
2022/07/18 01:48:25;;;;;;;5.32;3.53;;;;;;;20.51;44.87;102241.53;5031547;28;20048;-68
2022/07/18 01:50:51;;;;;;;7.13;3.58;;;;;;;20.43;44.58;102234.03;5031469;28;20049;-68
2022/07/18 01:53:19;;;;;;;7.45;3.90;;;;;;;20.34;44.40;102229.41;5031410;28;20052;-68
2022/07/18 01:55:46;;;;;;;7.22;3.90;;;;;;;20.29;44.61;102235.25;5050186;28;20107;-68
2022/07/18 01:58:12;;;;;;;5.72;3.85;;;;;;;20.28;44.85;102232.69;5051423;28;20415;-68
2022/07/18 02:00:39;;;;;;;7.00;4.07;;;;;;;20.26;44.93;102238.28;5051170;28;20069;-69
2022/07/18 02:03:10;;;;;;;5.72;3.42;;;;;;;20.25;45.32;102233.81;5051620;28;20041;-69
2022/07/18 02:05:37;;;;;;;6.55;3.80;;;;;;;20.26;45.31;102241.00;5051160;28;20065;-69
2022/07/18 02:08:03;;;;;;;6.30;3.83;;;;;;;20.25;45.22;102242.00;5051431;28;20048;-69
2022/07/18 02:10:30;;;;;;;5.85;3.42;;;;;;;20.24;45.52;102232.09;5051276;28;20047;-68
2022/07/18 02:13:00;;;;;;;5.93;3.75;;;;;;;20.23;45.12;102237.69;5051122;28;20049;-68
2022/07/18 02:15:26;;;;;;;4.22;3.28;;;;;;;20.23;45.34;102240.41;5050714;28;20521;-68
2022/07/18 02:17:53;;;;;;;6.45;3.70;;;;;;;20.22;45.14;102234.09;5051676;28;20484;-69
2022/07/18 02:20:19;;;;;;;4.90;3.30;;;;;;;20.19;45.48;102234.38;5051217;28;20546;-69
2022/07/18 02:22:50;;;;;;;4.85;3.08;;;;;;;20.17;45.20;102227.31;5051259;28;20119;-69
2022/07/18 02:25:17;;;;;;;5.38;3.30;;;;;;;20.13;45.34;102226.75;5050706;28;20132;-69
2022/07/18 02:27:43;;;;;;;5.13;3.50;;;;;;;20.12;45.46;102218.69;5051418;28;20041;-69
2022/07/18 02:30:10;;;;;;;6.00;3.38;;;;;;;20.11;45.35;102219.69;5051185;28;20045;-69
2022/07/18 02:32:39;;;;;;;4.55;3.22;;;;;;;20.10;45.30;102205.19;5051184;28;20045;-69
2022/07/18 02:35:08;;;;;;;6.57;3.30;;;;;;;20.09;45.31;102208.94;5050734;28;20041;-69
2022/07/18 02:37:37;;;;;;;4.43;3.15;;;;;;;20.04;45.05;102208.44;5053640;28;20471;-69
2022/07/18 02:40:07;;;;;;;7.75;3.38;;;;;;;19.96;44.86;102211.84;5055071;28;20491;-69
2022/07/18 02:45:06;;;;;;;6.13;3.55;;;;;;;19.81;45.21;102205.03;5053164;28;20415;-69
2022/07/18 02:47:32;;;;;;;6.45;3.50;;;;;;;19.75;45.56;102211.03;5053637;28;20454;-68
2022/07/18 02:49:59;;;;;;;5.90;3.92;;;;;;;19.71;45.26;102222.34;5055125;28;20068;-69
2022/07/18 02:52:26;;;;;;;6.45;3.90;;;;;;;19.65;45.52;102221.03;5055258;28;20073;-68
2022/07/18 02:54:52;;;;;;;6.43;3.90;;;;;;;19.59;45.70;102216.09;5055394;28;20506;-68
2022/07/18 02:57:19;;;;;;;4.32;3.50;;;;;;;19.52;45.58;102213.06;5055041;28;20055;-68
2022/07/18 02:59:46;;;;;;;6.70;4.47;;;;;;;19.47;46.09;102206.25;5053914;28;20045;-68
2022/07/18 03:02:12;;;;;;;5.95;4.28;;;;;;;19.45;46.08;102205.53;5055278;28;20043;-69
2022/07/18 03:04:39;;;;;;;6.10;4.20;;;;;;;19.46;46.02;102209.97;5055627;28;20063;-69
2022/07/18 03:07:05;;;;;;;7.80;4.30;;;;;;;19.49;46.22;102204.25;5054564;28;20048;-69
2022/07/18 03:09:32;;;;;;;7.88;3.72;;;;;;;19.52;46.02;102203.97;5054031;28;20059;-69
2022/07/18 03:11:59;;;;;;;6.50;3.90;;;;;;;19.54;46.44;102204.75;5054520;28;20060;-70
2022/07/18 03:14:28;;;;;;;7.20;3.70;;;;;;;19.56;46.15;102203.63;5053139;28;20045;-68
2022/07/18 03:16:55;;;;;;;8.63;4.28;;;;;;;19.60;45.99;102207.81;5053942;28;20057;-68
2022/07/18 03:19:22;;;;;;;6.03;3.97;;;;;;;19.64;46.14;102203.81;5053769;28;20033;-68
2022/07/18 03:21:48;;;;;;;6.53;3.85;;;;;;;19.66;46.42;102207.25;5054071;28;20052;-68
2022/07/18 03:24:16;;;;;;;7.55;3.90;;;;;;;19.69;46.39;102206.13;5054687;28;20052;-68
2022/07/18 03:26:43;;;;;;;4.88;3.55;;;;;;;19.69;46.55;102200.69;5053961;28;20045;-68
2022/07/18 03:29:11;;;;;;;9.05;4.30;;;;;;;19.70;46.29;102207.84;5053307;28;20509;-68
2022/07/18 03:31:38;;;;;;;5.40;3.58;;;;;;;19.70;46.48;102196.09;5053889;28;20446;-68
2022/07/18 03:34:05;;;;;;;7.60;4.32;;;;;;;19.68;46.37;102194.34;5053722;28;20047;-68
2022/07/18 03:36:35;;;;;;;7.65;4.03;;;;;;;19.67;46.23;102194.50;5053876;28;20037;-68
2022/07/18 03:39:05;;;;;;;7.50;4.15;;;;;;;19.66;46.31;102188.19;5053044;28;20515;-68
2022/07/18 03:41:32;;;;;;;7.95;4.18;;;;;;;19.64;46.35;102186.59;5053717;28;20139;-68
2022/07/18 03:43:59;;;;;;;5.55;3.80;;;;;;;19.60;46.60;102185.13;5053975;28;20052;-68
2022/07/18 03:46:26;;;;;;;5.53;3.58;;;;;;;19.57;46.30;102183.53;5053517;28;20059;-68
2022/07/18 03:48:53;;;;;;;7.72;3.67;;;;;;;19.55;46.63;102173.78;5053480;28;20041;-68
2022/07/18 03:51:19;;;;;;;6.60;3.58;;;;;;;19.53;46.77;102179.38;5053305;28;20115;-68
2022/07/18 03:53:50;;;;;;;5.72;3.50;;;;;;;19.52;46.75;102183.09;5053029;28;20045;-68
2022/07/18 03:56:17;;;;;;;6.32;4.00;;;;;;;19.51;46.25;102178.59;5053098;28;20139;-68
2022/07/18 03:58:44;;;;;;;6.90;3.78;;;;;;;19.51;46.69;102177.75;5053051;28;20450;-68
2022/07/18 04:01:11;;;;;;;4.15;3.38;;;;;;;19.49;46.46;102182.47;5053243;28;20037;-68
2022/07/18 04:03:42;;;;;;;5.82;3.83;;;;;;;19.49;46.57;102174.28;5052146;28;20080;-69
2022/07/18 04:06:09;;;;;;;6.47;3.65;;;;;;;19.50;46.41;102171.41;5053644;28;20115;-68
2022/07/18 04:08:35;;;;;;;4.95;3.40;;;;;;;19.51;46.81;102166.84;5051494;28;20049;-68
2022/07/18 04:11:02;;;;;;;8.90;3.95;;;;;;;19.52;46.66;102168.56;5052988;28;20052;-68
2022/07/18 04:13:29;;;;;;;5.32;3.67;;;;;;;19.53;46.62;102164.88;5053001;28;20415;-68
2022/07/18 04:15:56;;;;;;;8.25;3.53;;;;;;;19.54;46.84;102166.59;5052906;28;20535;-68
2022/07/18 04:18:22;;;;;;;5.80;3.42;;;;;;;19.55;47.19;102177.38;5052451;28;20103;-67
2022/07/18 04:20:49;;;;;;;7.70;3.38;;;;;;;19.57;46.62;102174.50;5051734;28;20051;-68
2022/07/18 04:23:18;;;;;;;6.40;4.28;;;;;;;19.56;46.89;102164.59;5052841;28;20055;-69
2022/07/18 04:25:45;;;;;;;5.35;3.85;;;;;;;19.54;46.51;102170.19;5052868;28;20059;-68
2022/07/18 04:28:13;;;;;;;6.93;3.90;;;;;;;19.55;47.03;102171.06;5052529;28;20048;-68
2022/07/18 04:30:41;;;;;;;9.05;4.28;;;;;;;19.54;47.15;102178.38;5051503;28;20052;-68
2022/07/18 04:33:11;;;;;;;5.47;3.80;;;;;;;19.54;47.03;102169.31;5052696;28;20126;-68
2022/07/18 04:35:39;;;;;;;5.72;3.97;;;;;;;19.53;46.70;102168.47;5052674;28;20052;-69
2022/07/18 04:38:07;;;;;;;8.23;3.67;;;;;;;19.54;47.13;102158.44;5052162;28;20349;-69
2022/07/18 04:40:34;;;;;;;7.10;3.85;;;;;;;19.55;46.81;102157.44;5052803;28;20059;-70
2022/07/18 04:43:05;;;;;;;5.88;3.42;;;;;;;19.57;47.00;102156.28;5052637;28;20044;-68
2022/07/18 04:45:32;;;;;;;6.20;3.47;;;;;;;19.60;47.17;102145.13;5052767;28;20053;-68
2022/07/18 04:47:59;;;;;;;6.57;4.30;;;;;;;19.65;47.35;102150.16;5052194;28;20055;-68
2022/07/18 04:50:26;;;;;;;14.13;4.20;;;;;;;19.69;47.12;102148.88;5052162;28;20056;-68
2022/07/18 04:52:58;;;;;;;6.50;4.10;;;;;;;19.73;47.38;102152.19;5052499;28;20052;-68
2022/07/18 04:55:25;;;;;;;8.43;4.10;;;;;;;19.75;47.14;102155.66;5052223;28;20131;-68
2022/07/18 04:57:52;;;;;;;5.68;4.00;;;;;;;19.78;47.59;102149.94;5051308;28;20037;-68
2022/07/18 05:00:22;;;;;;;5.93;4.03;;;;;;;19.79;47.51;102152.53;5051627;28;20495;-68
2022/07/18 05:02:54;;;;;;;9.90;4.20;;;;;;;19.78;47.40;102150.78;5053251;28;20061;-68
2022/07/18 05:05:22;;;;;;;10.20;4.22;;;;;;;19.78;47.13;102156.25;5052238;28;20498;-68
2022/07/18 05:07:49;;;;;;;7.70;4.70;;;;;;;19.79;47.58;102159.84;5050396;28;20040;-68
2022/07/18 05:10:17;;;;;;;12.00;4.57;;;;;;;19.82;47.15;102156.84;5053070;28;20506;-68
2022/07/18 05:12:46;;;;;;;6.38;4.18;;;;;;;19.86;47.54;102152.84;5051832;28;20041;-68
2022/07/18 05:15:16;;;;;;;9.43;4.10;;;;;;;19.91;47.57;102158.72;5051584;28;20127;-68
2022/07/18 05:17:43;;;;;;;6.72;4.05;;;;;;;19.97;47.60;102161.78;5051794;28;20486;-68
2022/07/18 05:20:14;;;;;;;5.97;4.47;;;;;;;20.03;47.67;102168.53;5051979;28;20055;-68
2022/07/18 05:22:46;;;;;;;6.85;3.72;;;;;;;20.08;47.71;102149.91;5052381;28;20051;-69
2022/07/18 05:25:13;;;;;;;6.55;4.05;;;;;;;20.12;47.58;102145.91;5051924;28;20041;-68
2022/07/18 05:27:41;;;;;;;8.75;4.38;;;;;;;20.16;47.35;102151.94;5052062;28;20467;-68
2022/07/18 05:30:10;;;;;;;5.78;3.70;;;;;;;20.20;47.19;102147.94;5051869;28;20037;-68
2022/07/18 05:32:42;;;;;;;7.03;4.38;;;;;;;20.27;47.13;102149.09;5051935;28;20048;-68
2022/07/18 05:35:10;;;;;;;7.95;5.13;;;;;;;20.34;47.47;102149.41;5051671;28;20056;-68
2022/07/18 05:37:37;;;;;;;9.32;4.53;;;;;;;20.41;46.91;102153.34;5051448;28;20399;-68
2022/07/18 05:40:05;;;;;;;9.10;4.50;;;;;;;20.47;47.29;102150.03;5051660;28;20370;-68
2022/07/18 05:42:40;;;;;;;6.53;4.30;;;;;;;20.54;47.41;102148.47;5050119;28;20039;-69
2022/07/18 05:45:23;;;;;;;8.20;4.82;;;;;;;20.63;47.22;102150.34;5049224;28;20328;-68
2022/07/18 05:47:50;;;;;;;5.65;4.43;;;;;;;20.71;47.06;102149.63;5051355;28;20475;-68
2022/07/18 05:50:17;;;;;;;11.65;4.40;;;;;;;20.76;47.19;102153.63;5051422;28;20045;-69
2022/07/18 05:52:48;;;;;;;7.32;4.50;;;;;;;20.82;47.13;102144.03;5051677;28;20120;-69
2022/07/18 05:55:15;;;;;;;9.00;4.82;;;;;;;20.89;47.20;102146.06;5051552;28;20056;-69
2022/07/18 05:57:42;;;;;;;4.57;4.10;;;;;;;20.97;47.12;102149.94;5051961;28;20053;-68
2022/07/18 06:00:10;;;;;;;5.70;3.67;;;;;;;21.05;47.30;102150.94;5051818;28;20048;-68
2022/07/18 06:02:38;;;;;;;9.35;4.85;;;;;;;21.18;47.03;102150.63;5051631;28;20060;-69
2022/07/18 06:05:06;;;;;;;7.65;4.85;;;;;;;21.32;47.26;102150.19;5051252;28;20041;-67
2022/07/18 06:07:48;;;;;;;8.77;4.55;;;;;;;21.50;47.12;102153.88;5051185;28;20115;-69
2022/07/18 06:10:15;;;;;;;9.38;3.90;;;;;;;21.67;46.98;102156.88;5051152;28;20033;-69
2022/07/18 06:12:46;;;;;;;7.90;4.28;;;;;;;21.82;46.82;102156.25;5054032;28;20032;-69
2022/07/18 06:15:13;;;;;;;7.53;4.35;;;;;;;22.03;46.58;102153.28;5055016;28;20065;-69
2022/07/18 06:17:40;;;;;;;10.82;4.20;;;;;;;22.24;46.81;102157.63;5054834;28;20450;-69
2022/07/18 06:20:07;;;;;;;7.93;4.13;;;;;;;22.45;46.22;102159.13;5055014;28;20045;-69
2022/07/18 06:22:38;;;;;;;6.80;4.15;;;;;;;22.69;46.46;102144.81;5055199;28;20380;-70
2022/07/18 06:25:06;;;;;;;10.52;3.97;;;;;;;22.93;46.01;102148.81;5054617;28;20045;-69
2022/07/18 06:27:32;;;;;;;8.13;4.18;;;;;;;23.15;45.92;102145.59;5053874;28;20040;-69
2022/07/18 06:29:59;;;;;;;7.78;3.33;;;;;;;23.38;45.36;102138.56;5055161;28;20041;-69
2022/07/18 06:32:26;;;;;;;9.18;4.30;;;;;;;23.65;45.27;102142.19;5054947;28;20099;-69
2022/07/18 06:34:55;;;;;;;8.80;4.03;;;;;;;23.88;44.90;102140.63;5054953;28;20271;-69
2022/07/18 06:37:22;;;;;;;7.95;4.57;;;;;;;24.06;44.70;102138.63;5055216;28;20045;-69
2022/07/18 06:39:48;;;;;;;5.78;4.03;;;;;;;24.23;44.35;102134.06;5054647;28;20549;-69
2022/07/18 06:42:15;;;;;;;8.98;4.18;;;;;;;24.41;43.92;102128.47;5054772;28;20163;-67
2022/07/18 06:44:42;;;;;;;8.07;4.00;;;;;;;24.58;43.82;102118.41;5054768;28;20487;-67
2022/07/18 06:47:09;;;;;;;6.85;4.28;;;;;;;24.80;43.61;102119.63;5054539;28;20037;-65
2022/07/18 06:49:35;;;;;;;9.43;4.35;;;;;;;24.97;43.68;102116.72;5054357;28;20041;-65
2022/07/18 06:52:02;;;;;;;7.30;3.90;;;;;;;25.14;43.05;102112.06;5054232;28;20131;-65
2022/07/18 06:54:33;;;;;;;6.90;3.95;;;;;;;25.38;43.07;102111.19;5054606;28;20077;-65
2022/07/18 06:56:59;;;;;;;7.55;4.25;;;;;;;25.61;42.79;102112.16;5054388;28;20095;-64
2022/07/18 06:59:26;;;;;;;6.13;4.15;;;;;;;25.84;42.52;102117.78;5054228;28;20041;-64
2022/07/18 07:01:53;;;;;;;6.55;4.40;;;;;;;26.06;42.33;102110.66;5054555;28;20044;-65
2022/07/18 07:04:19;;;;;;;7.10;4.13;;;;;;;26.25;41.75;102112.09;5054444;28;20045;-65
2022/07/18 07:06:46;;;;;;;6.70;4.22;;;;;;;26.43;41.58;102114.59;5054300;28;20047;-65
2022/07/18 07:09:12;;;;;;;6.63;4.15;;;;;;;26.60;41.14;102122.56;5054127;28;20052;-65
2022/07/18 07:11:39;;;;;;;8.70;4.15;;;;;;;26.73;40.79;102132.97;5053926;28;20433;-65
2022/07/18 07:14:07;;;;;;;8.68;4.20;;;;;;;26.84;40.11;102126.22;5054134;28;20491;-66
2022/07/18 07:16:34;;;;;;;7.72;3.92;;;;;;;26.97;40.00;102120.06;5053931;28;20375;-65
2022/07/18 07:19:01;;;;;;;5.47;4.22;;;;;;;27.17;39.70;102113.88;5054124;28;20041;-66
2022/07/18 07:21:27;;;;;;;7.28;4.45;;;;;;;27.30;39.18;102115.13;5053954;28;20059;-66
2022/07/18 07:23:58;;;;;;;13.55;4.95;;;;;;;27.43;38.96;102123.59;5053194;28;20043;-65
2022/07/18 07:26:24;;;;;;;7.28;4.53;;;;;;;27.58;38.86;102118.97;5053648;28;20503;-65
2022/07/18 07:28:51;;;;;;;9.60;4.15;;;;;;;27.71;38.78;102118.34;5053886;28;20128;-65
2022/07/18 07:31:18;;;;;;;10.35;4.60;;;;;;;27.82;38.45;102129.75;5054241;28;20044;-64
2022/07/18 07:33:44;;;;;;;5.35;3.58;;;;;;;28.01;38.79;102122.78;5053445;28;20474;-65
2022/07/18 07:36:11;;;;;;;8.98;3.60;;;;;;;28.28;38.64;102123.16;5053891;28;20088;-65
2022/07/18 07:38:37;;;;;;;8.43;4.03;;;;;;;28.61;38.19;102123.53;5054011;28;20040;-65
2022/07/18 07:41:04;;;;;;;8.05;4.28;;;;;;;28.83;37.70;102119.72;5053713;28;20041;-65
2022/07/18 07:43:31;;;;;;;11.40;4.90;;;;;;;28.98;37.46;102123.28;5053583;28;20143;-64
2022/07/18 07:45:57;;;;;;;9.05;4.72;;;;;;;29.12;37.16;102117.88;5054787;28;20045;-64
2022/07/18 07:48:24;;;;;;;6.90;3.55;;;;;;;29.21;37.10;102100.94;5055799;28;20048;-64
2022/07/18 07:50:51;;;;;;;5.55;3.42;;;;;;;29.32;36.51;102110.59;5053499;28;20048;-64
2022/07/18 07:53:22;;;;;;;7.43;3.72;;;;;;;29.38;36.06;102096.81;5053140;28;20037;-64
2022/07/18 07:55:48;;;;;;;7.47;3.22;;;;;;;29.53;35.97;102095.84;5053412;28;20051;-64
2022/07/18 07:58:15;;;;;;;5.65;3.22;;;;;;;29.71;35.90;102083.19;5052583;28;20499;-64
2022/07/18 08:00:42;;;;;;;7.30;3.50;;;;;;;29.86;35.38;102083.06;5053355;28;20060;-65
2022/07/18 08:03:10;;;;;;;6.28;4.00;;;;;;;29.98;35.44;102081.41;5053290;28;20392;-64
2022/07/18 08:05:43;;;;;;;7.13;3.60;;;;;;;30.09;34.83;102074.44;5053362;28;20079;-64
2022/07/18 08:08:10;;;;;;;6.05;3.58;;;;;;;30.15;35.08;102067.22;5053780;28;20048;-65
2022/07/18 08:10:36;;;;;;;5.72;3.40;;;;;;;30.20;34.48;102070.22;5052837;28;20052;-64
2022/07/18 08:13:13;;;;;;;8.52;3.65;;;;;;;30.29;34.16;102069.81;5053873;28;20460;-65
2022/07/18 08:15:40;;;;;;;5.82;3.03;;;;;;;30.37;34.12;102071.53;5053074;28;20071;-65
2022/07/18 08:18:06;;;;;;;8.20;3.45;;;;;;;30.52;33.58;102076.91;5053525;28;20049;-65
2022/07/18 08:20:34;;;;;;;5.38;3.40;;;;;;;30.60;33.20;102096.16;5053376;28;20048;-64
2022/07/18 08:23:08;;;;;;;15.55;4.03;;;;;;;30.67;32.82;102088.69;5053469;28;20074;-64
2022/07/18 08:25:37;;;;;;;7.93;3.38;;;;;;;30.71;32.73;102086.34;5053203;28;20499;-66
2022/07/18 08:28:04;;;;;;;7.97;2.92;;;;;;;30.85;32.91;102088.06;5051815;28;20053;-65
2022/07/18 08:30:31;;;;;;;5.88;3.33;;;;;;;31.08;32.62;102093.19;5053265;28;20055;-66
2022/07/18 08:33:03;;;;;;;7.63;3.35;;;;;;;31.27;32.10;102092.38;5052971;28;20120;-65
2022/07/18 08:35:31;;;;;;;5.57;3.42;;;;;;;31.35;32.01;102094.91;5052733;28;20044;-66
2022/07/18 08:38:03;;;;;;;5.47;2.92;;;;;;;31.40;31.68;102097.06;5053250;28;20119;-70
2022/07/18 08:40:30;;;;;;;6.05;3.47;;;;;;;31.44;31.51;102092.78;5051888;28;20041;-65
2022/07/18 08:43:00;;;;;;;6.97;2.65;;;;;;;31.42;31.27;102093.00;5053449;28;20036;-64
2022/07/18 08:45:47;;;;;;;7.20;3.40;;;;;;;31.50;31.52;102094.69;5054043;28;20045;-64
2022/07/18 08:48:15;;;;;;;10.82;2.83;;;;;;;31.61;31.22;102096.78;5053687;28;20462;-64
2022/07/18 08:50:46;;;;;;;7.53;2.50;;;;;;;31.72;30.69;102090.59;5053107;28;20037;-64
2022/07/18 08:53:18;;;;;;;7.95;2.42;;;;;;;31.73;30.64;102092.28;5052824;28;20033;-65
2022/07/18 08:55:46;;;;;;;6.82;2.30;;;;;;;31.76;30.42;102083.50;5052484;28;20044;-68
2022/07/18 08:58:14;;;;;;;6.28;2.95;;;;;;;31.76;30.19;102089.06;5052884;28;20045;-69
2022/07/18 09:01:01;;;;;;;7.53;2.78;;;;;;;31.79;29.92;102085.00;5051802;28;20044;-68
2022/07/18 09:03:32;;;;;;;8.00;3.70;;;;;;;31.80;30.29;102073.66;5051854;28;20052;-68
2022/07/18 09:06:04;;;;;;;6.63;3.45;;;;;;;31.90;30.33;102081.53;5037462;28;20053;-65
2022/07/18 09:08:31;;;;;;;5.95;3.60;;;;;;;32.01;30.15;102074.47;5051446;28;20049;-68
2022/07/18 09:10:59;;;;;;;7.00;4.00;;;;;;;32.07;29.85;102074.44;5051290;28;20047;-68
2022/07/18 09:13:44;;;;;;;5.80;3.60;;;;;;;32.14;29.86;102071.63;5050525;28;20116;-68
2022/07/18 09:16:15;;;;;;;6.32;4.03;;;;;;;32.22;29.30;102074.97;5050945;28;20081;-67
2022/07/18 09:18:47;;;;;;;5.72;3.20;;;;;;;32.30;29.36;102081.38;5050011;28;20033;-67
2022/07/18 09:21:21;;;;;;;6.93;4.35;;;;;;;32.39;29.17;102071.69;5050328;28;20033;-68
2022/07/18 09:23:51;;;;;;;5.47;4.13;;;;;;;32.47;28.99;102071.44;5049590;28;20041;-68
2022/07/18 09:26:40;;;;;;;7.45;4.13;;;;;;;32.49;28.87;102080.41;5051390;28;20139;-67
2022/07/18 09:29:08;;;;;;;7.53;4.65;;;;;;;32.55;29.01;102077.56;5049413;28;20072;-67
2022/07/18 09:31:54;;;;;;;7.90;3.70;;;;;;;32.60;28.90;102076.06;5053792;28;20478;-68
2022/07/18 09:34:34;;;;;;;9.43;4.97;;;;;;;32.71;28.94;102076.19;5069886;28;20044;-68
2022/07/18 09:37:02;;;;;;;7.43;4.95;;;;;;;32.85;28.63;102076.97;5053992;28;20040;-68
2022/07/18 09:39:29;;;;;;;8.20;4.50;;;;;;;32.96;28.71;102079.03;5049798;28;20053;-68
2022/07/18 09:42:18;;;;;;;10.70;4.45;;;;;;;33.04;28.77;102075.94;5049982;28;20051;-68
2022/07/18 09:45:01;;;;;;;6.25;3.83;;;;;;;33.21;28.24;102081.78;5060528;28;20037;-68
2022/07/18 09:47:28;;;;;;;10.52;4.95;;;;;;;33.35;28.60;102079.75;5050379;28;20476;-68
2022/07/18 09:49:54;;;;;;;7.38;3.90;;;;;;;33.47;28.42;102077.94;5050163;28;20087;-73
2022/07/18 09:52:22;;;;;;;5.50;3.58;;;;;;;33.61;28.06;102079.47;5049673;28;20041;-68
2022/07/18 09:55:04;;;;;;;5.97;4.10;;;;;;;33.74;27.86;102065.38;5049681;28;20511;-69
2022/07/18 09:57:31;;;;;;;8.77;4.43;;;;;;;33.85;27.48;102072.13;5049935;28;20063;-68
2022/07/18 09:59:59;;;;;;;7.00;3.80;;;;;;;33.90;27.20;102066.72;5049401;28;20040;-72
2022/07/18 10:02:25;;;;;;;6.47;4.30;;;;;;;33.94;27.26;102072.66;5048369;28;20040;-68
2022/07/18 10:04:52;;;;;;;8.75;4.82;;;;;;;33.95;27.01;102072.44;5056982;28;20067;-71
2022/07/18 10:07:19;;;;;;;7.10;4.00;;;;;;;33.99;27.10;102068.09;5070977;28;20048;-69
2022/07/18 10:09:46;;;;;;;9.32;4.38;;;;;;;34.02;27.12;102066.78;5065125;28;20045;-69
2022/07/18 10:12:16;;;;;;;6.55;4.28;;;;;;;34.07;26.86;102067.75;5050991;28;20047;-68
2022/07/18 10:14:44;;;;;;;6.35;4.20;;;;;;;34.09;26.61;102065.59;5050654;28;20041;-68
2022/07/18 10:17:11;;;;;;;10.18;4.28;;;;;;;34.13;26.76;102062.34;5050381;28;20552;-68
2022/07/18 10:19:37;;;;;;;9.35;3.75;;;;;;;34.24;26.63;102065.19;5050109;28;20048;-68
2022/07/18 10:22:06;;;;;;;9.18;4.60;;;;;;;34.34;26.75;102062.72;5050517;28;20033;-68
2022/07/18 10:24:38;;;;;;;7.00;4.18;;;;;;;34.42;26.25;102061.53;5050776;28;20512;-68
2022/07/18 10:27:12;;;;;;;6.28;3.30;;;;;;;34.46;26.25;102064.69;5050527;28;20039;-69
2022/07/18 10:29:38;;;;;;;6.82;3.17;;;;;;;34.44;26.61;102058.50;5050007;28;20446;-70
2022/07/18 10:32:07;;;;;;;6.10;3.25;;;;;;;34.37;26.41;102061.38;5049945;28;20398;-69
2022/07/18 10:34:36;;;;;;;5.07;3.30;;;;;;;34.25;26.13;102063.25;5051561;28;20435;-68
2022/07/18 10:37:03;;;;;;;5.25;2.70;;;;;;;34.21;26.41;102064.81;5058340;28;20036;-69
2022/07/18 10:39:42;;;;;;;7.95;2.40;;;;;;;34.21;26.37;102060.09;5065086;28;20052;-67
2022/07/18 10:42:09;;;;;;;3.25;2.30;;;;;;;34.29;26.50;102061.69;5049577;28;20036;-67
2022/07/18 10:44:39;;;;;;;4.65;2.20;;;;;;;34.38;25.99;102057.50;5050628;28;20083;-67
2022/07/18 10:49:49;;;;;;;7.78;2.28;;;;;;;34.53;25.63;102048.69;5050698;28;20067;-67
2022/07/18 10:52:25;;;;;;;6.10;2.20;;;;;;;34.59;25.75;102042.16;5050192;28;20041;-67
2022/07/18 10:55:06;;;;;;;5.55;2.15;;;;;;;34.64;25.69;102036.72;5050505;28;20045;-67
2022/07/18 10:57:41;;;;;;;7.90;2.03;;;;;;;34.74;26.08;102037.81;5051140;28;20049;-67
2022/07/18 11:00:23;;;;;;;6.05;1.98;;;;;;;34.87;25.61;102044.28;5054446;28;20048;-67
2022/07/18 11:03:00;;;;;;;5.60;2.20;;;;;;;34.99;25.12;102039.59;5054448;28;20502;-67
2022/07/18 11:05:27;;;;;;;6.18;1.92;;;;;;;35.13;25.07;102043.84;5053899;28;20068;-67
2022/07/18 11:08:02;;;;;;;4.57;1.95;;;;;;;35.29;25.34;102045.03;5054198;28;20033;-67
2022/07/18 11:10:41;;;;;;;4.95;1.80;;;;;;;35.40;25.23;102035.81;5053926;28;20055;-67
2022/07/18 11:13:24;;;;;;;3.42;1.67;;;;;;;35.60;25.13;102035.41;5052953;28;20571;-67
2022/07/18 11:15:54;;;;;;;6.05;2.33;;;;;;;35.77;24.75;102036.34;5053392;28;20056;-68
2022/07/18 11:18:21;;;;;;;7.10;2.03;;;;;;;35.87;23.91;102041.34;5054204;28;20060;-67
2022/07/18 11:20:48;;;;;;;2.63;1.50;;;;;;;35.96;24.37;102035.09;5054019;28;20037;-67
2022/07/18 11:23:24;;;;;;;5.40;2.20;;;;;;;36.04;23.98;102025.47;5053870;28;20119;-68
2022/07/18 11:25:54;;;;;;;5.80;1.77;;;;;;;36.14;24.31;102019.22;5053523;28;20403;-67
2022/07/18 11:28:28;;;;;;;4.68;1.55;;;;;;;36.25;24.03;102018.31;5054338;28;20056;-67
2022/07/18 11:31:06;;;;;;;5.05;1.63;;;;;;;36.37;24.38;102010.72;5053760;28;20048;-67
2022/07/18 11:33:43;;;;;;;3.88;1.48;;;;;;;36.53;24.19;102021.09;5054024;28;20052;-67
2022/07/18 11:36:17;;;;;;;2.72;1.65;;;;;;;36.63;23.44;102008.38;5053345;28;20393;-68
2022/07/18 11:38:53;;;;;;;4.20;1.75;;;;;;;36.66;22.95;102010.66;5053593;28;20419;-67
2022/07/18 11:41:21;;;;;;;2.30;1.50;;;;;;;36.62;23.54;102006.69;5053753;28;20045;-67